Flight Track Log - Related Links

Times and Time Zones

All times are in EDT time to prevent confusion due to time zone crossing. See the N6059D flight status page for this flight to view local times or setup timezone preferences in your user account.


Time Position Orientation Groundspeed Altitude Reporting Facility
EDT Latitude Longitude Course Direction KTS MPH feet Rate Location/Type
Wed 09:27:00 AM 41.4291 -75.0440 119° Southeast  Level Estimated
Wed 09:27:07 AM 41.4028 -74.8811 119° Southeast 126 145 6,800  Level Boston Center
Wed 09:28:00 AM 41.4118 -75.0026 119° Southeast  Level Estimated
Wed 09:28:07 AM 41.3850 -74.8417 121° Southeast 118 136 7,300  Level Boston Center
Wed 09:29:00 AM 41.3945 -74.9612 119° Southeast  Level Estimated
Wed 09:29:07 AM 41.3689 -74.8050 120° Southeast 123 142 7,500  Level Boston Center
Wed 09:30:00 AM 41.3771 -74.9198 119° Southeast  Level Estimated
Wed 09:30:07 AM 41.3469 -74.7628 125° Southeast 123 142 7,500  Level Boston Center
Wed 09:31:00 AM 41.3597 -74.8784 119° Southeast  Level Estimated
Wed 09:31:07 AM 41.3292 -74.7181 118° Southeast 128 147 7,500  Level Boston Center
Wed 09:32:07 AM 41.3092 -74.6731 121° Southeast 128 147 7,400 -50 Descending Boston Center
Wed 09:33:07 AM 41.2892 -74.6308 122° Southeast 128 147 7,400  Level Boston Center
Wed 09:34:07 AM 41.2692 -74.5861 121° Southeast 138 159 7,400  Level Boston Center
Wed 09:35:38 AM 41.2333 -74.5167 124° Southeast 138 159 7,400  Level New York TRACON
Wed 09:36:38 AM 41.2167 -74.4833 124° Southeast 135 155 7,400 48 Level New York TRACON
Wed 09:37:43 AM 41.2000 -74.4333 114° Southeast 140 161 7,500 48 Climbing New York TRACON
Wed 09:38:44 AM 41.1833 -74.3833 114° Southeast 134 154 7,500  Level New York TRACON
Wed 09:39:38 AM 41.1667 -74.3500 124° Southeast 136 157 7,500  Level New York TRACON
Wed 09:40:44 AM 41.1333 -74.3000 132° Southeast 143 165 7,500  Level New York TRACON
Wed 09:41:44 AM 41.1167 -74.2500 114° Southeast 141 162 7,500  Level New York TRACON
Wed 09:42:44 AM 41.1000 -74.2167 124° Southeast 140 161 7,500  Level New York TRACON
Wed 09:43:44 AM 41.0833 -74.1667 114° Southeast 139 160 7,500 50 Level New York TRACON
Wed 09:44:44 AM 41.0500 -74.1167 131° Southeast 141 162 7,600  Climbing New York TRACON
Wed 09:45:50 AM 41.0333 -74.0667 114° Southeast 143 165 7,500 -50 Descending New York TRACON
Wed 09:46:44 AM 41.0167 -74.0333 124° Southeast 142 163 7,500  Level New York TRACON
Wed 09:47:44 AM 41.0000 -73.9833 114° Southeast 144 166 7,500 50 Level New York TRACON
Wed 09:48:44 AM 40.9667 -73.9500 143° Southeast 142 163 7,600 -50 Climbing New York TRACON
Wed 09:49:44 AM 40.9500 -73.9000 114° Southeast 156 180 7,400 -50 Descending New York TRACON
Wed 09:50:44 AM 40.9333 -73.8500 114° Southeast 143 165 7,500 50 Climbing New York TRACON
Wed 09:51:44 AM 40.9167 -73.8000 114° Southeast 141 162 7,500  Level New York TRACON
Wed 09:52:44 AM 40.8833 -73.7667 143° Southeast 143 165 7,500  Level New York TRACON
Wed 09:53:50 AM 40.8667 -73.7167 114° Southeast 147 169 7,500 -200 Level New York TRACON
Wed 09:54:44 AM 40.8667 -73.6667 90° East 164 189 7,100 -474 Descending New York TRACON
Wed 09:55:44 AM 40.8500 -73.6000 108° East 165 190 6,600 -550 Descending New York TRACON
Wed 09:56:44 AM 40.8500 -73.5500 90° East 161 185 6,000 -632 Descending New York TRACON
Wed 09:57:38 AM 40.8500 -73.4833 90° East 156 180 5,400 -667 Descending New York TRACON
Wed 09:59:00 AM 40.8022 -73.4557 123° Southeast  Level Estimated

Login

Don't have an account? Register now (free) for customized features, flight alerts, and more!